createdAt,value
2023-03-17T00:00:22.693Z,0.30
2023-03-17T00:02:50.117Z,0.30
2023-03-17T00:05:20.680Z,0.31
2023-03-17T00:07:48.130Z,0.30
2023-03-17T00:10:24.033Z,0.26
2023-03-17T00:12:55.616Z,0.25
2023-03-17T00:15:23.788Z,0.27
2023-03-17T00:17:50.761Z,0.24
2023-03-17T00:20:32.036Z,0.22
2023-03-17T00:23:00.416Z,0.20
2023-03-17T00:25:29.424Z,0.21
2023-03-17T00:27:58.357Z,0.21
2023-03-17T00:30:28.383Z,0.21
2023-03-17T00:32:57.668Z,0.21
2023-03-17T00:35:29.094Z,0.22
2023-03-17T00:37:57.794Z,0.21
2023-03-17T00:40:29.672Z,0.16
2023-03-17T00:42:58.304Z,0.14
2023-03-17T00:45:27.181Z,0.10
2023-03-17T00:47:56.303Z,0.10
2023-03-17T00:50:26.479Z,0.11
2023-03-17T00:52:56.637Z,0.15
2023-03-17T00:55:26.624Z,0.17
2023-03-17T00:57:54.500Z,0.16
2023-03-17T01:00:29.805Z,0.18
2023-03-17T01:02:57.544Z,0.18
2023-03-17T01:05:26.198Z,0.16
2023-03-17T01:07:57.919Z,0.18
2023-03-17T01:10:28.190Z,0.20
2023-03-17T01:12:59.125Z,0.18
2023-03-17T01:15:31.663Z,0.21
2023-03-17T01:18:01.613Z,0.23
2023-03-17T01:20:32.889Z,0.26
2023-03-17T01:23:01.621Z,0.22
2023-03-17T01:25:29.314Z,0.22
2023-03-17T01:28:00.564Z,0.19
2023-03-17T01:30:38.787Z,0.20
2023-03-17T01:33:08.589Z,0.19
2023-03-17T01:35:36.972Z,0.17
2023-03-17T01:38:05.088Z,0.18
2023-03-17T01:40:37.462Z,0.16
2023-03-17T01:43:17.488Z,0.16
2023-03-17T01:46:24.917Z,0.17
2023-03-17T01:49:15.734Z,0.16
2023-03-17T01:52:14.400Z,0.20
2023-03-17T01:54:56.356Z,0.17
2023-03-17T01:57:28.667Z,0.16
2023-03-17T02:00:03.140Z,0.14
2023-03-17T02:02:46.201Z,0.17
2023-03-17T02:05:17.111Z,0.17
2023-03-17T02:07:45.255Z,0.16
2023-03-17T02:10:13.745Z,0.13
2023-03-17T02:12:42.587Z,0.10
2023-03-17T02:15:10.921Z,0.09
2023-03-17T02:17:57.948Z,0.07
2023-03-17T02:20:24.798Z,0.07
2023-03-17T02:22:55.026Z,0.09
2023-03-17T02:25:23.955Z,0.05
2023-03-17T02:27:57.380Z,0.06
2023-03-17T02:30:25.456Z,0.04
2023-03-17T02:32:52.730Z,0.04
2023-03-17T02:35:22.449Z,0.02
2023-03-17T02:37:49.360Z,0.03
2023-03-17T02:40:16.757Z,0.02
2023-03-17T02:42:43.768Z,0.02
2023-03-17T02:45:12.820Z,0.01
2023-03-17T02:47:40.218Z,0.01
2023-03-17T02:50:08.704Z,0.02
2023-03-17T02:52:35.829Z,-0.02
2023-03-17T02:55:02.759Z,-0.03
2023-03-17T02:57:30.072Z,-0.02
2023-03-17T02:59:57.205Z,-0.06
2023-03-17T03:02:24.109Z,-0.06
2023-03-17T03:04:51.128Z,-0.10
2023-03-17T03:07:18.143Z,-0.10
2023-03-17T03:09:45.602Z,-0.11
2023-03-17T03:12:13.942Z,-0.10
2023-03-17T03:14:41.162Z,-0.11
2023-03-17T03:17:09.778Z,-0.10
2023-03-17T03:19:36.671Z,-0.12
2023-03-17T03:22:03.884Z,-0.11
2023-03-17T03:24:30.855Z,-0.14
2023-03-17T03:26:57.796Z,-0.17
2023-03-17T03:29:24.718Z,-0.18
2023-03-17T03:31:51.796Z,-0.20
2023-03-17T03:34:19.067Z,-0.21
2023-03-17T03:36:46.121Z,-0.23
2023-03-17T03:39:14.504Z,-0.21
2023-03-17T03:41:41.864Z,-0.21
2023-03-17T03:44:08.825Z,-0.21
2023-03-17T03:46:35.915Z,-0.19
2023-03-17T03:49:02.960Z,-0.22
2023-03-17T03:51:29.885Z,-0.22
2023-03-17T03:53:56.837Z,-0.23
2023-03-17T03:56:23.742Z,-0.23
2023-03-17T03:58:51.619Z,-0.22
2023-03-17T04:01:18.780Z,-0.19
2023-03-17T04:03:47.467Z,-0.22
2023-03-17T04:06:14.991Z,-0.19
2023-03-17T04:08:43.037Z,-0.18
2023-03-17T04:11:10.281Z,-0.20
2023-03-17T04:13:38.001Z,-0.20
2023-03-17T04:16:05.286Z,-0.23
2023-03-17T04:18:32.252Z,-0.19
2023-03-17T04:20:59.607Z,-0.19
2023-03-17T04:23:26.630Z,-0.17
2023-03-17T04:25:54.138Z,-0.15
2023-03-17T04:28:22.480Z,-0.13
2023-03-17T04:30:49.438Z,-0.12
2023-03-17T04:33:16.846Z,-0.11
2023-03-17T04:35:44.088Z,-0.11
2023-03-17T04:38:13.301Z,-0.07
2023-03-17T04:40:40.869Z,-0.05
2023-03-17T04:43:08.014Z,-0.02
2023-03-17T04:45:35.085Z,0.03
2023-03-17T04:48:02.087Z,0.04
2023-03-17T04:50:29.567Z,0.08
2023-03-17T04:52:56.685Z,0.08
2023-03-17T04:55:23.634Z,0.08
2023-03-17T04:57:50.684Z,0.14
2023-03-17T05:00:18.294Z,0.16
2023-03-17T05:02:45.195Z,0.16
2023-03-17T05:05:13.024Z,0.15
2023-03-17T05:07:40.351Z,0.20
2023-03-17T05:10:08.013Z,0.21
2023-03-17T05:12:34.985Z,0.24
2023-03-17T05:15:01.981Z,0.26
2023-03-17T05:17:33.501Z,0.26
2023-03-17T05:20:00.659Z,0.25
2023-03-17T05:22:27.592Z,0.26
2023-03-17T05:24:54.529Z,0.26
2023-03-17T05:27:21.901Z,0.29
2023-03-17T05:29:49.915Z,0.28
2023-03-17T05:32:16.937Z,0.26
2023-03-17T05:34:45.203Z,0.30
2023-03-17T05:37:12.882Z,0.29
2023-03-17T05:39:40.261Z,0.29
2023-03-17T05:42:08.556Z,0.25
2023-03-17T05:44:35.589Z,0.25
2023-03-17T05:47:03.019Z,0.25
2023-03-17T05:49:30.041Z,0.25
2023-03-17T05:51:57.062Z,0.27
2023-03-17T05:54:24.308Z,0.33
2023-03-17T05:56:51.596Z,0.40
2023-03-17T05:59:18.672Z,0.40
2023-03-17T06:01:45.769Z,0.41
2023-03-17T06:04:12.834Z,0.43
2023-03-17T06:06:40.152Z,0.49
2023-03-17T06:09:07.246Z,0.50
2023-03-17T06:11:34.710Z,0.50
2023-03-17T06:14:02.186Z,0.51
2023-03-17T06:16:30.911Z,0.56
2023-03-17T06:18:57.948Z,0.61
2023-03-17T06:21:25.004Z,0.70
2023-03-17T06:23:52.209Z,0.72
2023-03-17T06:26:19.206Z,0.81
2023-03-17T06:28:46.704Z,0.90
2023-03-17T06:31:13.608Z,0.98
2023-03-17T06:33:40.941Z,1.07
2023-03-17T06:36:08.949Z,1.16
2023-03-17T06:38:35.902Z,1.23
2023-03-17T06:41:03.493Z,1.25
2023-03-17T06:43:31.543Z,1.30
2023-03-17T06:46:01.045Z,1.34
2023-03-17T06:48:28.815Z,1.36
2023-03-17T06:50:55.726Z,1.28
2023-03-17T06:53:22.714Z,1.39
2023-03-17T06:55:49.784Z,1.38
2023-03-17T06:58:17.101Z,1.46
2023-03-17T07:00:47.251Z,1.55
2023-03-17T07:03:14.907Z,1.67
2023-03-17T07:05:42.326Z,1.77
2023-03-17T07:08:09.491Z,1.88
2023-03-17T07:10:36.910Z,1.93
2023-03-17T07:13:06.117Z,1.86
2023-03-17T07:15:35.282Z,1.94
2023-03-17T07:18:02.694Z,2.05
2023-03-17T07:20:29.836Z,2.09
2023-03-17T07:22:57.308Z,2.12
2023-03-17T07:25:24.538Z,2.24
2023-03-17T07:27:52.101Z,2.38
2023-03-17T07:30:19.472Z,2.56
2023-03-17T07:32:47.949Z,2.74
2023-03-17T07:35:15.660Z,2.82
2023-03-17T07:37:45.667Z,2.93
2023-03-17T07:40:12.882Z,2.95
2023-03-17T07:42:39.896Z,2.88
2023-03-17T07:45:08.092Z,2.86
2023-03-17T07:47:35.082Z,2.98
2023-03-17T07:50:03.253Z,2.98
2023-03-17T07:52:30.860Z,2.96
2023-03-17T07:54:58.946Z,3.09
2023-03-17T07:57:25.905Z,3.10
2023-03-17T07:59:52.994Z,3.11
2023-03-17T08:02:20.308Z,3.21
2023-03-17T08:04:47.706Z,3.37
2023-03-17T08:07:15.679Z,3.45
2023-03-17T08:09:42.962Z,3.63
2023-03-17T08:12:11.760Z,3.70
2023-03-17T08:14:38.714Z,4.15
2023-03-17T08:17:06.586Z,4.82
2023-03-17T08:19:33.689Z,5.26
2023-03-17T08:22:01.458Z,5.48
2023-03-17T08:24:28.580Z,5.31
2023-03-17T08:26:55.530Z,5.45
2023-03-17T08:29:22.547Z,5.62
2023-03-17T08:31:49.634Z,5.41
2023-03-17T08:34:16.675Z,5.14
2023-03-17T08:36:44.464Z,4.98
2023-03-17T08:39:11.940Z,5.17
2023-03-17T08:41:38.849Z,5.01
2023-03-17T08:44:05.925Z,5.14
2023-03-17T08:46:33.553Z,5.30
2023-03-17T08:49:01.182Z,5.26
2023-03-17T08:51:34.551Z,5.40
2023-03-17T08:54:02.439Z,5.58
2023-03-17T08:56:29.646Z,5.63
2023-03-17T08:58:56.803Z,5.89
2023-03-17T09:01:24.595Z,6.02
2023-03-17T09:03:55.170Z,5.94
2023-03-17T09:06:23.460Z,5.90
2023-03-17T09:08:55.492Z,5.99
2023-03-17T09:11:26.141Z,7.06
2023-03-17T09:13:53.930Z,7.22
2023-03-17T09:16:23.305Z,7.46
2023-03-17T09:18:50.519Z,8.70
2023-03-17T09:21:17.767Z,9.07
2023-03-17T09:23:44.631Z,9.30
2023-03-17T09:26:12.813Z,9.27
2023-03-17T09:28:39.896Z,9.60
2023-03-17T09:31:11.519Z,9.92
2023-03-17T09:33:41.013Z,10.29
2023-03-17T09:36:12.172Z,10.66
2023-03-17T09:38:39.452Z,10.93
2023-03-17T09:41:40.667Z,10.55
2023-03-17T09:44:30.289Z,10.58
2023-03-17T09:47:18.424Z,11.11
2023-03-17T09:49:50.693Z,10.98
2023-03-17T09:52:20.420Z,11.11
2023-03-17T09:54:49.828Z,11.20
2023-03-17T09:57:29.566Z,11.46
2023-03-17T10:00:06.974Z,11.92
2023-03-17T10:02:40.019Z,11.80
2023-03-17T10:05:35.633Z,12.29
2023-03-17T10:08:10.859Z,12.86
2023-03-17T10:10:50.038Z,12.34
2023-03-17T10:13:56.038Z,11.36
2023-03-17T10:16:32.629Z,11.56
2023-03-17T10:19:05.601Z,12.60
2023-03-17T10:21:34.487Z,12.37
2023-03-17T10:24:03.727Z,12.40
2023-03-17T10:26:42.068Z,12.60
2023-03-17T10:29:15.102Z,13.37
2023-03-17T10:31:42.396Z,13.94
2023-03-17T10:34:17.866Z,13.81
2023-03-17T10:36:51.583Z,13.21
2023-03-17T10:39:20.702Z,13.07
2023-03-17T10:41:55.732Z,13.15
2023-03-17T10:45:03.286Z,13.76
2023-03-17T10:47:35.807Z,14.09
2023-03-17T10:50:23.071Z,14.28
2023-03-17T10:53:01.850Z,14.34
2023-03-17T10:55:34.350Z,13.90
2023-03-17T10:58:23.988Z,14.09
2023-03-17T11:01:29.779Z,13.56
2023-03-17T11:03:58.170Z,13.68
2023-03-17T11:06:42.333Z,13.71
2023-03-17T11:09:13.329Z,13.59
2023-03-17T11:11:48.115Z,14.18
2023-03-17T11:14:18.807Z,14.30
2023-03-17T11:17:00.258Z,14.40
2023-03-17T11:19:58.704Z,14.58
2023-03-17T11:22:35.447Z,14.86
2023-03-17T11:25:23.714Z,14.34
2023-03-17T11:28:06.728Z,14.82
2023-03-17T11:30:37.638Z,14.94
2023-03-17T11:33:05.694Z,15.24
2023-03-17T11:35:46.932Z,15.55
2023-03-17T11:38:20.286Z,15.93
2023-03-17T11:40:47.802Z,15.49
2023-03-17T11:43:44.004Z,15.30
2023-03-17T11:46:24.722Z,15.22
2023-03-17T11:49:06.890Z,15.31
2023-03-17T11:52:03.644Z,15.35
2023-03-17T11:54:40.017Z,14.93
2023-03-17T11:57:15.551Z,14.81
2023-03-17T11:59:52.160Z,14.74
2023-03-17T12:02:41.475Z,15.24
2023-03-17T12:05:13.765Z,15.50
2023-03-17T12:07:54.945Z,15.92
2023-03-17T12:10:37.819Z,16.03
2023-03-17T12:13:19.907Z,15.50
2023-03-17T12:15:51.100Z,15.61
2023-03-17T12:18:23.905Z,15.55
2023-03-17T12:21:14.695Z,15.73
2023-03-17T12:23:50.273Z,16.32
2023-03-17T12:26:28.881Z,16.33
2023-03-17T12:29:04.952Z,16.24
2023-03-17T12:31:35.406Z,15.84
2023-03-17T12:34:03.322Z,15.51
2023-03-17T12:36:30.374Z,15.57
2023-03-17T12:39:01.999Z,15.84
2023-03-17T12:41:47.670Z,16.12
2023-03-17T12:44:27.266Z,17.16
2023-03-17T12:47:28.645Z,17.05
2023-03-17T12:50:04.732Z,16.42
2023-03-17T12:52:43.525Z,17.15
2023-03-17T12:55:14.295Z,17.60
2023-03-17T12:57:47.411Z,17.75
2023-03-17T13:00:18.543Z,16.27
2023-03-17T13:03:09.479Z,15.66
2023-03-17T13:05:37.701Z,15.71
2023-03-17T13:08:07.703Z,16.33
2023-03-17T13:10:48.751Z,17.21
2023-03-17T13:13:23.453Z,17.65
2023-03-17T13:15:53.891Z,17.37
2023-03-17T13:18:20.798Z,16.65
2023-03-17T13:21:00.500Z,16.73
2023-03-17T13:23:55.438Z,17.36
2023-03-17T13:26:59.933Z,16.67
2023-03-17T13:29:40.067Z,16.28
2023-03-17T13:32:16.159Z,15.66
2023-03-17T13:34:50.012Z,16.10
2023-03-17T13:37:31.021Z,16.62
2023-03-17T13:40:10.258Z,16.80
2023-03-17T13:42:38.137Z,16.68
2023-03-17T13:45:32.984Z,16.39
2023-03-17T13:48:32.490Z,16.97
2023-03-17T13:51:13.184Z,17.47
2023-03-17T13:53:51.862Z,17.64
2023-03-17T13:56:23.073Z,17.55
2023-03-17T13:59:01.960Z,16.94
2023-03-17T14:01:32.599Z,16.72
2023-03-17T14:04:03.241Z,16.63
2023-03-17T14:06:34.519Z,16.82
2023-03-17T14:09:08.598Z,17.05
2023-03-17T14:11:38.503Z,17.09
2023-03-17T14:14:44.921Z,16.84
2023-03-17T14:17:21.234Z,16.28
2023-03-17T14:20:00.776Z,16.76
2023-03-17T14:22:27.980Z,16.02
2023-03-17T14:24:59.082Z,16.22
2023-03-17T14:27:27.307Z,16.04
2023-03-17T14:29:54.320Z,15.78
2023-03-17T14:32:26.401Z,15.20
2023-03-17T14:34:59.778Z,12.03
2023-03-17T14:37:28.398Z,9.70
2023-03-17T14:39:57.729Z,8.37
2023-03-17T14:42:32.118Z,7.44
2023-03-17T14:45:07.351Z,6.69
2023-03-17T14:47:40.524Z,6.21
2023-03-17T14:50:17.618Z,5.81
2023-03-17T14:52:44.889Z,5.34
2023-03-17T14:55:14.661Z,4.99
2023-03-17T14:57:41.830Z,4.77
2023-03-17T15:00:53.479Z,4.96
2023-03-17T15:03:22.903Z,4.46
2023-03-17T15:05:50.542Z,4.23
2023-03-17T15:08:41.307Z,3.97
2023-03-17T15:11:09.111Z,3.93
2023-03-17T15:13:38.037Z,3.74
2023-03-17T15:16:18.206Z,3.63
2023-03-17T15:18:45.613Z,3.61
2023-03-17T15:21:32.602Z,3.45
2023-03-17T15:24:05.039Z,3.31
2023-03-17T15:26:32.370Z,3.18
2023-03-17T15:29:00.700Z,3.09
2023-03-17T15:31:30.303Z,2.91
2023-03-17T15:33:57.985Z,2.74
2023-03-17T15:36:32.708Z,2.74
2023-03-17T15:39:01.290Z,2.63
2023-03-17T15:41:28.507Z,2.45
2023-03-17T15:43:55.520Z,2.34
2023-03-17T15:46:27.420Z,2.22
2023-03-17T15:48:54.632Z,2.20
2023-03-17T15:51:22.151Z,2.09
2023-03-17T15:53:49.298Z,2.08
2023-03-17T15:56:21.140Z,2.02
2023-03-17T15:58:49.385Z,1.89
2023-03-17T16:01:17.104Z,1.79
2023-03-17T16:03:45.591Z,1.73
2023-03-17T16:06:21.432Z,1.63
2023-03-17T16:08:49.347Z,1.53
2023-03-17T16:11:20.461Z,1.50
2023-03-17T16:13:47.585Z,1.46
2023-03-17T16:16:21.665Z,1.41
2023-03-17T16:18:51.088Z,1.35
2023-03-17T16:21:19.235Z,1.38
2023-03-17T16:23:46.668Z,1.52
2023-03-17T16:26:15.914Z,1.29
2023-03-17T16:28:45.653Z,1.11
2023-03-17T16:31:33.196Z,1.05
2023-03-17T16:34:00.247Z,0.91
2023-03-17T16:36:27.279Z,0.99
2023-03-17T16:38:54.266Z,0.97
2023-03-17T16:41:24.363Z,1.09
2023-03-17T16:44:01.350Z,0.97
2023-03-17T16:46:34.459Z,0.85
2023-03-17T16:49:04.191Z,0.76
2023-03-17T16:51:31.272Z,0.75
2023-03-17T16:53:59.308Z,0.72
2023-03-17T16:56:27.591Z,0.73
2023-03-17T16:58:54.655Z,0.72
2023-03-17T17:01:26.521Z,0.64
2023-03-17T17:03:54.197Z,0.57
2023-03-17T17:06:22.444Z,0.74
2023-03-17T17:08:50.821Z,0.55
2023-03-17T17:11:19.572Z,0.35
2023-03-17T17:13:47.970Z,0.25
2023-03-17T17:16:26.717Z,0.27
2023-03-17T17:18:53.990Z,0.26
2023-03-17T17:21:21.036Z,0.19
2023-03-17T17:23:47.958Z,0.20
2023-03-17T17:26:15.167Z,0.15
2023-03-17T17:28:42.844Z,0.11
2023-03-17T17:31:10.694Z,0.04
2023-03-17T17:33:39.273Z,-0.08
2023-03-17T17:36:14.790Z,-0.17
2023-03-17T17:38:44.612Z,-0.34
2023-03-17T17:41:12.414Z,-0.16
2023-03-17T17:43:40.021Z,-0.17
2023-03-17T17:46:12.162Z,-0.26
2023-03-17T17:48:54.680Z,-0.36
2023-03-17T17:51:22.331Z,-0.30
2023-03-17T17:53:49.397Z,-0.41
2023-03-17T17:56:22.893Z,-0.48
2023-03-17T17:58:50.642Z,-0.55
2023-03-17T18:01:22.049Z,-0.47
2023-03-17T18:03:49.141Z,-0.54
2023-03-17T18:06:18.010Z,-0.56
2023-03-17T18:08:45.016Z,-0.53
2023-03-17T18:11:14.353Z,-0.55
2023-03-17T18:13:41.585Z,-0.45
2023-03-17T18:16:10.162Z,-0.28
2023-03-17T18:18:40.655Z,-0.23
2023-03-17T18:21:08.454Z,-0.36
2023-03-17T18:23:36.643Z,-0.53
2023-03-17T18:26:06.069Z,-0.59
2023-03-17T18:28:33.132Z,-0.64
2023-03-17T18:31:05.668Z,-0.68
2023-03-17T18:33:32.799Z,-0.74
2023-03-17T18:35:59.883Z,-0.79
2023-03-17T18:38:26.893Z,-0.92
2023-03-17T18:40:53.784Z,-0.91
2023-03-17T18:43:21.402Z,-0.98
2023-03-17T18:45:48.319Z,-0.96
2023-03-17T18:48:15.551Z,-0.97
2023-03-17T18:50:42.776Z,-1.03
2023-03-17T18:53:09.665Z,-1.02
2023-03-17T18:55:36.739Z,-1.06
2023-03-17T18:58:03.944Z,-1.01
2023-03-17T19:00:31.254Z,-1.01
2023-03-17T19:02:58.376Z,-0.98
2023-03-17T19:05:25.735Z,-1.12
2023-03-17T19:07:52.739Z,-1.24
2023-03-17T19:10:19.740Z,-1.34
2023-03-17T19:12:47.415Z,-1.34
2023-03-17T19:15:14.755Z,-1.41
2023-03-17T19:17:41.968Z,-1.30
2023-03-17T19:20:10.253Z,-1.24
2023-03-17T19:22:37.269Z,-1.39
2023-03-17T19:25:04.483Z,-1.49
2023-03-17T19:27:31.672Z,-1.51
2023-03-17T19:29:58.602Z,-1.43
2023-03-17T19:32:25.842Z,-1.53
2023-03-17T19:34:53.184Z,-1.63
2023-03-17T19:37:20.194Z,-1.65
2023-03-17T19:39:47.118Z,-1.75
2023-03-17T19:42:16.324Z,-1.70
2023-03-17T19:44:44.876Z,-1.80
2023-03-17T19:47:12.076Z,-1.70
2023-03-17T19:49:39.121Z,-1.69
2023-03-17T19:52:07.719Z,-1.84
2023-03-17T19:54:35.070Z,-1.94
2023-03-17T19:57:02.202Z,-2.00
2023-03-17T19:59:29.131Z,-1.97
2023-03-17T20:01:56.103Z,-2.01
2023-03-17T20:04:23.330Z,-2.08
2023-03-17T20:06:55.726Z,-2.10
2023-03-17T20:09:26.196Z,-2.12
2023-03-17T20:11:53.983Z,-2.13
2023-03-17T20:14:21.220Z,-2.10
2023-03-17T20:16:48.698Z,-2.11
2023-03-17T20:19:16.453Z,-2.11
2023-03-17T20:21:43.543Z,-2.16
2023-03-17T20:24:12.520Z,-2.17
2023-03-17T20:26:39.925Z,-2.25
2023-03-17T20:29:08.191Z,-2.36
2023-03-17T20:31:36.140Z,-2.38
2023-03-17T20:34:03.257Z,-2.31
2023-03-17T20:36:30.164Z,-2.44
2023-03-17T20:38:57.133Z,-2.52
2023-03-17T20:41:24.223Z,-2.45
2023-03-17T20:43:51.332Z,-2.40
2023-03-17T20:46:21.762Z,-2.37
2023-03-17T20:48:48.915Z,-2.36
2023-03-17T20:51:17.097Z,-2.42
2023-03-17T20:53:55.310Z,-2.58
2023-03-17T20:56:24.289Z,-2.65
2023-03-17T20:58:53.313Z,-2.71
2023-03-17T21:01:21.611Z,-2.80
2023-03-17T21:03:51.646Z,-2.88
2023-03-17T21:06:19.870Z,-2.72
2023-03-17T21:08:47.319Z,-2.75
2023-03-17T21:11:17.986Z,-2.59
2023-03-17T21:13:47.774Z,-2.59
2023-03-17T21:16:24.090Z,-2.60
2023-03-17T21:18:51.638Z,-2.64
2023-03-17T21:21:19.932Z,-2.72
2023-03-17T21:23:47.131Z,-2.74
2023-03-17T21:26:14.796Z,-2.73
2023-03-17T21:28:42.707Z,-2.62
2023-03-17T21:31:14.120Z,-2.54
2023-03-17T21:33:42.274Z,-2.74
2023-03-17T21:36:12.891Z,-2.75
2023-03-17T21:38:40.032Z,-2.68
2023-03-17T21:41:39.631Z,-2.65
2023-03-17T21:44:07.975Z,-2.73
2023-03-17T21:46:35.093Z,-2.78
2023-03-17T21:49:02.426Z,-2.77
2023-03-17T21:51:30.506Z,-2.75
2023-03-17T21:54:00.764Z,-2.85
2023-03-17T21:56:29.753Z,-2.74
2023-03-17T21:58:57.800Z,-2.82
2023-03-17T22:01:26.371Z,-2.92
2023-03-17T22:03:53.446Z,-2.92
2023-03-17T22:06:21.234Z,-2.98
2023-03-17T22:08:48.922Z,-2.97
2023-03-17T22:11:17.855Z,-2.95
2023-03-17T22:13:45.262Z,-3.02
2023-03-17T22:16:13.051Z,-2.99
2023-03-17T22:18:40.151Z,-3.06
2023-03-17T22:21:08.360Z,-3.09
2023-03-17T22:23:41.174Z,-3.06
2023-03-17T22:26:19.075Z,-3.09
2023-03-17T22:28:47.518Z,-3.11
2023-03-17T22:31:20.504Z,-3.15
2023-03-17T22:33:49.198Z,-3.10
2023-03-17T22:36:16.584Z,-3.17
2023-03-17T22:38:43.820Z,-3.18
2023-03-17T22:41:16.636Z,-3.23
2023-03-17T22:43:43.983Z,-3.31
2023-03-17T22:46:11.743Z,-3.31
2023-03-17T22:48:40.279Z,-3.29
2023-03-17T22:51:10.359Z,-3.25
2023-03-17T22:53:39.191Z,-3.25
2023-03-17T22:56:07.252Z,-3.34
2023-03-17T22:58:34.213Z,-3.39
2023-03-17T23:01:01.428Z,-3.40
2023-03-17T23:03:28.933Z,-3.43
2023-03-17T23:05:58.562Z,-3.46
2023-03-17T23:08:27.298Z,-3.38
2023-03-17T23:10:54.924Z,-3.39
2023-03-17T23:13:22.449Z,-3.45
2023-03-17T23:15:49.416Z,-3.50
2023-03-17T23:18:17.564Z,-3.50
2023-03-17T23:20:45.145Z,-3.47
2023-03-17T23:23:12.426Z,-3.45
2023-03-17T23:25:39.630Z,-3.50
2023-03-17T23:28:07.744Z,-3.49
2023-03-17T23:30:35.933Z,-3.54
2023-03-17T23:33:05.002Z,-3.57
2023-03-17T23:35:32.451Z,-3.63
2023-03-17T23:37:59.768Z,-3.58
2023-03-17T23:40:26.659Z,-3.55
2023-03-17T23:42:55.201Z,-3.53
2023-03-17T23:45:23.331Z,-3.51
2023-03-17T23:47:51.695Z,-3.55
2023-03-17T23:50:19.552Z,-3.58
2023-03-17T23:52:47.281Z,-3.66
2023-03-17T23:55:16.143Z,-3.67
2023-03-17T23:57:44.287Z,-3.67
